createdAt,value
2018-06-09T00:01:12.007Z,3.53
2018-06-09T00:03:39.130Z,3.57
2018-06-09T00:06:06.347Z,3.47
2018-06-09T00:08:33.469Z,3.77
2018-06-09T00:11:00.605Z,3.20
2018-06-09T00:13:27.730Z,3.60
2018-06-09T00:15:54.828Z,3.70
2018-06-09T00:18:21.952Z,3.57
2018-06-09T00:20:49.119Z,3.60
2018-06-09T00:23:16.220Z,3.50
2018-06-09T00:25:43.368Z,3.37
2018-06-09T00:28:10.537Z,3.60
2018-06-09T00:30:37.642Z,3.37
2018-06-09T00:33:04.755Z,3.70
2018-06-09T00:35:31.983Z,3.50
2018-06-09T00:37:59.083Z,3.93
2018-06-09T00:40:26.192Z,3.80
2018-06-09T00:42:54.315Z,3.93
2018-06-09T00:45:21.388Z,4.10
2018-06-09T00:47:48.463Z,4.00
2018-06-09T00:50:15.582Z,3.33
2018-06-09T00:52:42.796Z,3.57
2018-06-09T00:55:09.908Z,3.60
2018-06-09T00:57:37.082Z,3.57
2018-06-09T01:00:04.246Z,3.57
2018-06-09T01:02:31.364Z,3.37
2018-06-09T01:04:58.502Z,3.57
2018-06-09T01:07:25.631Z,3.43
2018-06-09T01:09:52.822Z,3.63
2018-06-09T01:12:20.361Z,3.90
2018-06-09T01:14:47.465Z,3.90
2018-06-09T01:17:14.544Z,3.60
2018-06-09T01:19:41.756Z,4.10
2018-06-09T01:22:08.976Z,3.77
2018-06-09T01:24:36.071Z,3.87
2018-06-09T01:27:03.263Z,3.70
2018-06-09T01:29:30.364Z,4.00
2018-06-09T01:31:57.442Z,3.63
2018-06-09T01:34:24.617Z,4.20
2018-06-09T01:36:51.754Z,3.37
2018-06-09T01:39:18.843Z,4.03
2018-06-09T01:41:46.168Z,3.67
2018-06-09T01:44:13.373Z,3.90
2018-06-09T01:46:40.503Z,3.97
2018-06-09T01:49:07.689Z,3.53
2018-06-09T01:51:34.828Z,3.80
2018-06-09T01:54:01.992Z,3.87
2018-06-09T01:56:29.116Z,3.77
2018-06-09T01:58:56.242Z,4.20
2018-06-09T02:01:23.344Z,4.13
2018-06-09T02:03:50.509Z,3.67
2018-06-09T02:06:17.622Z,3.60
2018-06-09T02:08:44.866Z,3.67
2018-06-09T02:11:12.028Z,4.30
2018-06-09T02:13:39.152Z,4.20
2018-06-09T02:16:06.249Z,3.63
2018-06-09T02:18:33.460Z,3.70
2018-06-09T02:21:00.595Z,4.17
2018-06-09T02:23:27.672Z,3.73
2018-06-09T02:25:54.813Z,3.83
2018-06-09T02:28:21.932Z,4.10
2018-06-09T02:30:49.032Z,4.10
2018-06-09T02:33:16.157Z,4.30
2018-06-09T02:35:43.257Z,4.60
2018-06-09T02:38:10.354Z,4.00
2018-06-09T02:40:37.506Z,4.90
2018-06-09T02:43:04.868Z,4.60
2018-06-09T02:45:32.185Z,4.00
2018-06-09T02:47:59.363Z,4.47
2018-06-09T02:50:26.472Z,4.27
2018-06-09T02:52:53.599Z,4.10
2018-06-09T02:55:21.120Z,4.47
2018-06-09T02:57:48.242Z,4.30
2018-06-09T03:00:15.320Z,4.53
2018-06-09T03:02:42.482Z,4.83
2018-06-09T03:05:09.585Z,4.33
2018-06-09T03:07:36.699Z,4.53
2018-06-09T03:10:03.949Z,4.60
2018-06-09T03:12:31.063Z,4.53
2018-06-09T03:14:58.110Z,4.17
2018-06-09T03:17:25.312Z,4.47
2018-06-09T03:19:52.451Z,4.60
2018-06-09T03:22:19.548Z,4.50
2018-06-09T03:24:46.722Z,4.60
2018-06-09T03:27:13.838Z,4.60
2018-06-09T03:29:40.925Z,5.07
2018-06-09T03:32:08.073Z,4.73
2018-06-09T03:34:35.201Z,4.40
2018-06-09T03:37:02.299Z,4.47
2018-06-09T03:39:29.415Z,4.50
2018-06-09T03:41:56.527Z,4.67
2018-06-09T03:44:23.608Z,5.20
2018-06-09T03:46:50.761Z,5.07
2018-06-09T03:49:17.845Z,4.80
2018-06-09T03:51:44.935Z,4.37
2018-06-09T03:54:12.087Z,4.53
2018-06-09T03:56:39.579Z,5.00
2018-06-09T03:59:06.694Z,5.10
2018-06-09T04:01:33.891Z,4.90
2018-06-09T04:04:01.743Z,5.37
2018-06-09T04:06:28.836Z,4.53
2018-06-09T04:08:56.021Z,4.97
2018-06-09T04:11:23.095Z,5.37
2018-06-09T04:13:50.188Z,5.10
2018-06-09T04:16:17.303Z,5.13
2018-06-09T04:18:44.411Z,5.20
2018-06-09T04:21:11.736Z,5.60
2018-06-09T04:23:38.890Z,5.10
2018-06-09T04:26:05.993Z,5.07
2018-06-09T04:28:33.138Z,4.57
2018-06-09T04:31:00.417Z,5.03
2018-06-09T04:33:27.551Z,5.67
2018-06-09T04:35:54.669Z,5.20
2018-06-09T04:38:21.835Z,5.00
2018-06-09T04:40:48.947Z,5.00
2018-06-09T04:43:16.047Z,5.30
2018-06-09T04:45:43.210Z,5.60
2018-06-09T04:48:10.704Z,5.00
2018-06-09T04:50:37.833Z,5.10
2018-06-09T04:53:05.062Z,4.90
2018-06-09T04:55:32.200Z,5.23
2018-06-09T04:57:59.422Z,5.10
2018-06-09T05:00:26.576Z,4.87
2018-06-09T05:02:53.691Z,5.10
2018-06-09T05:05:20.895Z,4.77
2018-06-09T05:07:48.081Z,5.47
2018-06-09T05:10:15.190Z,4.93
2018-06-09T05:12:42.357Z,4.90
2018-06-09T05:15:09.786Z,5.03
2018-06-09T05:17:36.888Z,5.30
2018-06-09T05:20:04.032Z,5.33
2018-06-09T05:22:31.222Z,4.90
2018-06-09T05:24:58.363Z,4.70
2018-06-09T05:27:25.618Z,4.87
2018-06-09T05:29:52.791Z,4.73
2018-06-09T05:32:19.944Z,5.10
2018-06-09T05:34:47.111Z,4.70
2018-06-09T05:37:14.284Z,4.37
2018-06-09T05:39:41.384Z,4.67
2018-06-09T05:42:08.553Z,4.90
2018-06-09T05:44:35.777Z,4.47
2018-06-09T05:47:03.600Z,4.53
2018-06-09T05:49:30.715Z,4.37
2018-06-09T05:51:57.875Z,4.07
2018-06-09T05:54:25.104Z,4.97
2018-06-09T05:56:52.267Z,4.43
2018-06-09T05:59:19.488Z,4.80
2018-06-09T06:01:46.683Z,4.90
2018-06-09T06:04:13.823Z,4.40
2018-06-09T06:06:41.477Z,4.00
2018-06-09T06:09:08.768Z,4.30
2018-06-09T06:11:35.891Z,4.67
2018-06-09T06:14:04.265Z,4.50
2018-06-09T06:16:31.712Z,4.43
2018-06-09T06:18:58.852Z,4.63
2018-06-09T06:21:26.017Z,4.27
2018-06-09T06:23:53.235Z,4.70
2018-06-09T06:26:20.721Z,4.63
2018-06-09T06:28:48.194Z,4.67
2018-06-09T06:31:15.354Z,4.87
2018-06-09T06:33:42.675Z,4.30
2018-06-09T06:36:09.908Z,4.70
2018-06-09T06:38:37.022Z,4.30
2018-06-09T06:41:04.117Z,5.10
2018-06-09T06:43:31.530Z,4.80
2018-06-09T06:45:58.727Z,4.27
2018-06-09T06:48:25.886Z,4.20
2018-06-09T06:50:53.648Z,4.30
2018-06-09T06:53:20.768Z,4.30
2018-06-09T06:55:47.976Z,4.10
2018-06-09T06:58:15.164Z,4.23
2018-06-09T07:00:42.376Z,4.30
2018-06-09T07:03:09.522Z,4.13
2018-06-09T07:05:36.812Z,4.40
2018-06-09T07:08:03.929Z,4.07
2018-06-09T07:10:31.031Z,4.67
2018-06-09T07:12:58.179Z,4.43
2018-06-09T07:15:25.284Z,4.73
2018-06-09T07:17:52.415Z,4.23
2018-06-09T07:20:19.551Z,4.43
2018-06-09T07:22:46.654Z,4.47
2018-06-09T07:25:14.923Z,4.00
2018-06-09T07:27:42.076Z,4.17
2018-06-09T07:30:09.375Z,3.87
2018-06-09T07:32:36.489Z,3.70
2018-06-09T07:35:03.927Z,3.90
2018-06-09T07:37:31.042Z,3.77
2018-06-09T07:39:58.154Z,3.87
2018-06-09T07:42:25.324Z,3.87
2018-06-09T07:44:52.425Z,3.80
2018-06-09T07:47:19.663Z,3.73
2018-06-09T07:49:47.043Z,3.83
2018-06-09T07:52:14.138Z,3.63
2018-06-09T07:54:41.328Z,3.57
2018-06-09T07:57:08.504Z,3.40
2018-06-09T07:59:35.677Z,3.40
2018-06-09T08:02:02.762Z,3.80
2018-06-09T08:04:29.954Z,3.53
2018-06-09T08:06:57.092Z,3.60
2018-06-09T08:09:24.173Z,3.23
2018-06-09T08:11:51.327Z,3.23
2018-06-09T08:14:18.479Z,3.10
2018-06-09T08:16:45.628Z,3.40
2018-06-09T08:19:12.824Z,3.17
2018-06-09T08:21:39.931Z,3.73
2018-06-09T08:24:07.124Z,3.40
2018-06-09T08:26:34.279Z,3.33
2018-06-09T08:29:01.421Z,3.60
2018-06-09T08:31:28.474Z,3.30
2018-06-09T08:33:56.601Z,2.87
2018-06-09T08:36:23.725Z,3.53
2018-06-09T08:38:51.411Z,3.10
2018-06-09T08:41:18.577Z,3.13
2018-06-09T08:43:45.728Z,3.60
2018-06-09T08:46:12.816Z,3.20
2018-06-09T08:48:39.957Z,3.60
2018-06-09T08:51:07.106Z,3.77
2018-06-09T08:53:34.311Z,3.40
2018-06-09T08:56:01.486Z,3.30
2018-06-09T08:58:28.616Z,3.50
2018-06-09T09:00:55.761Z,3.00
2018-06-09T09:03:22.885Z,3.03
2018-06-09T09:05:49.983Z,3.07
2018-06-09T09:08:17.062Z,3.10
2018-06-09T09:10:44.235Z,3.37
2018-06-09T09:13:11.611Z,2.80
2018-06-09T09:15:38.699Z,3.57
2018-06-09T09:18:05.877Z,3.43
2018-06-09T09:20:33.003Z,3.37
2018-06-09T09:23:00.126Z,3.27
2018-06-09T09:25:27.440Z,3.30
2018-06-09T09:27:54.585Z,3.60
2018-06-09T09:30:21.678Z,3.33
2018-06-09T09:32:48.842Z,3.27
2018-06-09T09:35:15.943Z,3.30
2018-06-09T09:37:43.025Z,3.43
2018-06-09T09:40:10.267Z,3.57
2018-06-09T09:42:37.424Z,3.37
2018-06-09T09:45:04.595Z,3.20
2018-06-09T09:47:31.814Z,3.43
2018-06-09T09:49:58.940Z,3.30
2018-06-09T09:52:29.454Z,3.47
2018-06-09T09:54:56.713Z,3.20
2018-06-09T09:57:23.892Z,3.73
2018-06-09T09:59:51.054Z,3.20
2018-06-09T10:02:18.264Z,3.33
2018-06-09T10:04:46.036Z,3.93
2018-06-09T10:07:13.173Z,3.30
2018-06-09T10:09:40.307Z,3.40
2018-06-09T10:12:08.278Z,3.53
2018-06-09T10:14:35.548Z,3.30
2018-06-09T10:17:02.909Z,3.90
2018-06-09T10:19:30.666Z,3.40
2018-06-09T10:21:57.899Z,3.40
2018-06-09T10:24:25.099Z,3.50
2018-06-09T10:26:52.215Z,3.60
2018-06-09T10:29:19.352Z,3.60
2018-06-09T10:31:47.170Z,3.52
2018-06-09T10:34:14.275Z,3.20
2018-06-09T10:36:42.000Z,3.22
2018-06-09T10:39:33.758Z,3.50
2018-06-09T10:42:01.002Z,3.42
2018-06-09T10:44:28.196Z,3.62
2018-06-09T10:46:56.766Z,3.42
2018-06-09T10:49:23.929Z,3.20
2018-06-09T10:51:51.076Z,3.58
2018-06-09T10:54:18.774Z,3.10
2018-06-09T10:56:45.888Z,3.47
2018-06-09T10:59:12.975Z,3.50
2018-06-09T11:01:40.203Z,3.00
2018-06-09T11:04:07.284Z,3.17
2018-06-09T11:06:34.493Z,3.20
2018-06-09T11:09:03.330Z,3.52
2018-06-09T11:11:30.437Z,3.75
2018-06-09T11:13:57.546Z,3.45
2018-06-09T11:16:24.696Z,4.10
2018-06-09T11:18:51.928Z,3.65
2018-06-09T11:21:19.076Z,3.42
2018-06-09T11:23:46.207Z,3.75
2018-06-09T11:26:13.280Z,3.72
2018-06-09T11:28:41.490Z,3.90
2018-06-09T11:31:08.730Z,3.90
2018-06-09T11:33:35.921Z,4.03
2018-06-09T11:36:03.063Z,4.10
2018-06-09T11:38:30.448Z,3.75
2018-06-09T11:40:57.569Z,4.00
2018-06-09T11:43:24.748Z,3.77
2018-06-09T11:45:53.007Z,3.90
2018-06-09T11:48:20.096Z,4.08
2018-06-09T11:50:47.253Z,3.75
2018-06-09T11:53:14.484Z,4.08
2018-06-09T11:55:41.751Z,3.95
2018-06-09T11:58:08.914Z,4.10
2018-06-09T12:00:36.097Z,3.77
2018-06-09T12:03:03.219Z,3.92
2018-06-09T12:05:30.346Z,3.87
2018-06-09T12:07:57.590Z,3.70
2018-06-09T12:10:24.794Z,3.87
2018-06-09T12:12:51.890Z,4.22
2018-06-09T12:15:19.092Z,3.75
2018-06-09T12:17:46.241Z,3.77
2018-06-09T12:20:13.418Z,3.75
2018-06-09T12:22:41.502Z,3.92
2018-06-09T12:25:08.616Z,4.20
2018-06-09T12:27:35.788Z,4.30
2018-06-09T12:30:03.000Z,3.90
2018-06-09T12:32:31.065Z,4.08
2018-06-09T12:34:58.834Z,3.87
2018-06-09T12:37:25.968Z,4.15
2018-06-09T12:39:53.069Z,4.05
2018-06-09T12:42:20.200Z,3.95
2018-06-09T12:44:47.375Z,3.80
2018-06-09T12:47:14.472Z,3.80
2018-06-09T12:49:41.582Z,3.92
2018-06-09T12:52:08.710Z,4.30
2018-06-09T12:54:35.818Z,4.00
2018-06-09T12:57:03.302Z,4.30
2018-06-09T12:59:30.488Z,4.25
2018-06-09T13:01:57.696Z,4.40
2018-06-09T13:04:24.796Z,4.17
2018-06-09T13:06:51.946Z,4.10
2018-06-09T13:09:19.053Z,4.07
2018-06-09T13:11:46.155Z,4.40
2018-06-09T13:14:13.275Z,4.05
2018-06-09T13:16:40.359Z,4.65
2018-06-09T13:19:07.460Z,4.00
2018-06-09T13:21:34.707Z,3.80
2018-06-09T13:24:01.866Z,4.22
2018-06-09T13:26:28.971Z,4.03
2018-06-09T13:28:56.142Z,4.70
2018-06-09T13:31:24.178Z,4.70
2018-06-09T13:33:51.579Z,4.60
2018-06-09T13:36:18.827Z,4.30
2018-06-09T13:38:45.920Z,4.40
2018-06-09T13:41:13.004Z,4.05
2018-06-09T13:43:40.177Z,4.67
2018-06-09T13:46:07.373Z,4.10
2018-06-09T13:48:35.500Z,4.50
2018-06-09T13:51:02.626Z,4.35
2018-06-09T13:53:29.736Z,4.75
2018-06-09T13:55:56.840Z,4.53
2018-06-09T13:58:23.975Z,4.20
2018-06-09T14:00:51.400Z,4.20
2018-06-09T14:03:18.515Z,4.05
2018-06-09T14:05:45.681Z,4.58
2018-06-09T14:08:12.779Z,4.58
2018-06-09T14:10:39.886Z,4.40
2018-06-09T14:34:49.680Z,4.50
2018-06-09T14:37:16.852Z,4.85
2018-06-09T14:39:43.976Z,4.90
2018-06-09T14:42:11.117Z,4.80
2018-06-09T14:44:38.968Z,4.72
2018-06-09T14:47:06.118Z,4.53
2018-06-09T14:49:33.267Z,4.77
2018-06-09T14:52:00.940Z,4.85
2018-06-09T14:54:28.052Z,4.37
2018-06-09T14:56:55.220Z,4.20
2018-06-09T14:59:22.332Z,4.42
2018-06-09T15:01:49.437Z,4.50
2018-06-09T15:04:16.617Z,4.12
2018-06-09T15:06:43.871Z,4.40
2018-06-09T15:09:10.994Z,4.20
2018-06-09T15:11:38.132Z,4.72
2018-06-09T15:14:05.258Z,4.35
2018-06-09T15:16:32.399Z,4.47
2018-06-09T15:18:59.652Z,4.10
2018-06-09T15:21:26.784Z,4.30
2018-06-09T15:23:53.879Z,4.55
2018-06-09T15:26:21.019Z,4.28
2018-06-09T15:28:48.110Z,4.62
2018-06-09T15:31:15.296Z,4.05
2018-06-09T15:33:42.496Z,4.50
2018-06-09T15:36:09.898Z,3.95
2018-06-09T15:38:37.158Z,4.40
2018-06-09T15:41:04.392Z,4.35
2018-06-09T15:43:31.504Z,4.42
2018-06-09T15:45:58.586Z,4.20
2018-06-09T15:48:25.812Z,4.00
2018-06-09T15:50:53.218Z,4.55
2018-06-09T15:53:20.316Z,4.40
2018-06-09T15:55:47.465Z,4.17
2018-06-09T15:58:14.539Z,3.98
2018-06-09T16:00:41.613Z,3.92
2018-06-09T16:03:08.781Z,4.45
2018-06-09T16:05:36.289Z,4.78
2018-06-09T16:08:04.027Z,4.50
2018-06-09T16:10:31.155Z,4.40
2018-06-09T16:12:58.246Z,4.67
2018-06-09T16:15:25.578Z,4.60
2018-06-09T16:17:52.703Z,4.50
2018-06-09T16:20:20.633Z,4.12
2018-06-09T16:22:47.731Z,4.10
2018-06-09T16:25:14.876Z,4.10
2018-06-09T16:27:41.984Z,4.55
2018-06-09T16:30:09.073Z,4.20
2018-06-09T16:32:36.269Z,4.05
2018-06-09T16:35:03.367Z,3.98
2018-06-09T16:37:30.473Z,4.80
2018-06-09T16:39:57.744Z,4.40
2018-06-09T16:42:24.818Z,4.33
2018-06-09T16:44:51.928Z,4.27
2018-06-09T16:47:19.153Z,4.30
2018-06-09T16:49:46.225Z,4.10
2018-06-09T16:52:13.330Z,3.80
2018-06-09T16:54:40.589Z,4.47
2018-06-09T16:57:07.716Z,4.17
2018-06-09T16:59:36.259Z,4.17
2018-06-09T17:02:03.429Z,4.50
2018-06-09T17:04:30.628Z,4.20
2018-06-09T17:06:57.764Z,4.23
2018-06-09T17:09:24.994Z,4.07
2018-06-09T17:11:52.180Z,4.30
2018-06-09T17:14:19.268Z,4.67
2018-06-09T17:16:46.450Z,4.43
2018-06-09T17:19:13.578Z,4.60
2018-06-09T17:21:40.782Z,4.30
2018-06-09T17:24:07.894Z,4.50
2018-06-09T17:26:35.233Z,4.37
2018-06-09T17:29:02.339Z,4.50
2018-06-09T17:31:29.997Z,4.37
2018-06-09T17:33:57.127Z,4.33
2018-06-09T17:36:25.039Z,4.57
2018-06-09T17:38:52.628Z,5.07
2018-06-09T17:41:19.870Z,6.40
2018-06-09T17:43:46.951Z,6.23
2018-06-09T17:46:14.091Z,6.57
2018-06-09T17:48:41.336Z,7.07
2018-06-09T17:51:08.501Z,7.00
2018-06-09T17:53:36.383Z,6.53
2018-06-09T17:56:04.007Z,6.87
2018-06-09T17:58:31.145Z,7.00
2018-06-09T18:00:58.304Z,6.33
2018-06-09T18:03:25.483Z,7.10
2018-06-09T18:05:52.592Z,7.43
2018-06-09T18:08:19.756Z,6.37
2018-06-09T18:10:46.840Z,6.97
2018-06-09T18:13:15.059Z,7.37
2018-06-09T18:15:42.186Z,8.10
2018-06-09T18:18:09.367Z,7.67
2018-06-09T18:20:36.493Z,7.53
2018-06-09T18:23:03.770Z,7.83
2018-06-09T18:25:30.838Z,7.37
2018-06-09T18:27:57.987Z,7.90
2018-06-09T18:30:25.144Z,7.90
2018-06-09T18:32:52.215Z,8.37
2018-06-09T18:35:19.292Z,7.83
2018-06-09T18:37:46.461Z,7.53
2018-06-09T18:40:13.544Z,7.83
2018-06-09T18:42:40.757Z,7.67
2018-06-09T18:45:07.950Z,8.30
2018-06-09T18:47:35.097Z,8.07
2018-06-09T18:50:02.810Z,7.80
2018-06-09T18:52:29.967Z,7.60
2018-06-09T18:54:57.209Z,7.80
2018-06-09T18:57:24.308Z,7.50
2018-06-09T18:59:51.477Z,8.37
2018-06-09T19:02:18.588Z,8.03
2018-06-09T19:04:45.738Z,8.00
2018-06-09T19:07:12.966Z,8.77
2018-06-09T19:09:40.041Z,8.40
2018-06-09T19:12:07.131Z,8.53
2018-06-09T19:14:34.614Z,8.40
2018-06-09T19:17:01.725Z,8.57
2018-06-09T19:19:28.983Z,8.27
2018-06-09T19:21:56.188Z,7.90
2018-06-09T19:24:23.251Z,8.03
2018-06-09T19:26:50.372Z,8.03
2018-06-09T19:29:22.867Z,8.47
2018-06-09T19:31:53.108Z,8.60
2018-06-09T19:34:24.430Z,8.30
2018-06-09T19:36:55.480Z,8.80
2018-06-09T19:39:22.620Z,8.67
2018-06-09T19:41:54.521Z,8.20
2018-06-09T19:44:27.350Z,8.73
2018-06-09T19:46:56.838Z,9.00
2018-06-09T19:49:26.466Z,8.63
2018-06-09T19:51:55.926Z,8.67
2018-06-09T19:54:22.992Z,8.97
2018-06-09T19:56:55.777Z,8.67
2018-06-09T19:59:27.604Z,8.67
2018-06-09T20:01:54.725Z,8.27
2018-06-09T20:04:22.068Z,9.00
2018-06-09T20:06:49.616Z,10.07
2018-06-09T20:09:16.707Z,9.37
2018-06-09T20:11:46.771Z,8.93
2018-06-09T20:14:14.012Z,9.53
2018-06-09T20:16:41.314Z,9.67
2018-06-09T20:19:10.363Z,10.20
2018-06-09T20:21:37.487Z,11.30
2018-06-09T20:24:04.584Z,11.90
2018-06-09T20:26:31.692Z,12.03
2018-06-09T20:28:58.813Z,12.17
2018-06-09T20:31:25.919Z,12.13
2018-06-09T20:33:53.016Z,11.73
2018-06-09T20:36:20.232Z,12.60
2018-06-09T20:38:47.344Z,12.60
2018-06-09T20:41:14.436Z,12.63
2018-06-09T20:43:41.550Z,12.40
2018-06-09T20:46:08.679Z,12.43
2018-06-09T20:48:35.779Z,12.10
2018-06-09T20:51:03.001Z,12.83
2018-06-09T20:53:30.115Z,13.27
2018-06-09T20:55:57.191Z,14.63
2018-06-09T20:58:24.356Z,14.13
2018-06-09T21:00:51.441Z,14.03
2018-06-09T21:03:18.588Z,13.63
2018-06-09T21:05:45.766Z,14.57
2018-06-09T21:08:12.838Z,14.20
2018-06-09T21:10:39.918Z,14.53
2018-06-09T21:13:07.041Z,13.07
2018-06-09T21:15:34.133Z,14.30
2018-06-09T21:18:01.256Z,13.43
2018-06-09T21:20:28.400Z,13.27
2018-06-09T21:22:55.480Z,13.93
2018-06-09T21:25:22.582Z,13.43
2018-06-09T21:27:55.504Z,14.00
2018-06-09T21:30:28.369Z,13.57
2018-06-09T21:33:01.108Z,14.33
2018-06-09T21:35:44.946Z,13.93
2018-06-09T21:38:15.980Z,14.27
2018-06-09T21:40:47.031Z,13.23
2018-06-09T21:43:19.779Z,13.90
2018-06-09T21:45:49.903Z,13.87
2018-06-09T21:48:18.067Z,14.17
2018-06-09T21:50:45.223Z,14.67
2018-06-09T21:53:12.333Z,13.47
2018-06-09T21:55:39.692Z,13.60
2018-06-09T21:58:06.830Z,14.00
2018-06-09T22:00:33.908Z,13.70
2018-06-09T22:03:00.978Z,14.40
2018-06-09T22:05:28.175Z,14.53
2018-06-09T22:07:55.247Z,14.43
2018-06-09T22:10:22.355Z,15.13
2018-06-09T22:12:49.485Z,16.47
2018-06-09T22:15:16.548Z,17.93
2018-06-09T22:17:43.659Z,16.10
2018-06-09T22:20:10.787Z,16.10
2018-06-09T22:22:37.849Z,15.70
2018-06-09T22:25:04.950Z,16.07
2018-06-09T22:27:32.112Z,15.67
2018-06-09T22:29:59.468Z,15.40
2018-06-09T22:32:26.560Z,16.17
2018-06-09T22:34:53.693Z,15.33
2018-06-09T22:37:20.834Z,15.17
2018-06-09T22:39:47.883Z,15.77
2018-06-09T22:42:15.585Z,16.40
2018-06-09T22:44:42.663Z,16.53
2018-06-09T22:47:09.740Z,15.47
2018-06-09T22:49:36.862Z,16.23
2018-06-09T22:52:03.974Z,16.37
2018-06-09T22:54:31.085Z,15.63
2018-06-09T22:56:58.223Z,16.13
2018-06-09T22:59:25.280Z,15.53
2018-06-09T23:01:52.381Z,15.73
2018-06-09T23:04:19.514Z,15.77
2018-06-09T23:06:46.639Z,15.73
2018-06-09T23:09:13.722Z,15.83
2018-06-09T23:11:40.848Z,14.47
2018-06-09T23:14:07.944Z,14.03
2018-06-09T23:16:35.023Z,14.57
2018-06-09T23:19:02.163Z,19.63
2018-06-09T23:21:29.231Z,18.00
2018-06-09T23:23:56.329Z,16.83
2018-06-09T23:26:23.452Z,16.27
2018-06-09T23:28:50.523Z,16.60
2018-06-09T23:31:17.592Z,17.77
2018-06-09T23:33:44.700Z,16.80
2018-06-09T23:36:11.764Z,16.53
2018-06-09T23:38:38.826Z,17.13
2018-06-09T23:41:05.964Z,15.53
2018-06-09T23:43:33.104Z,16.67
2018-06-09T23:46:00.200Z,15.87
2018-06-09T23:48:27.317Z,16.10
2018-06-09T23:50:54.366Z,15.67
2018-06-09T23:53:21.428Z,15.80
2018-06-09T23:55:48.552Z,16.73
2018-06-09T23:58:15.656Z,16.50
